Alto Taquari, Brazil
Current Conditions -  °F | °C
As of 5:00 AM on Wednesday 26 Nov 2014 (Local Time) from SBCG Reporting Station
Haze Haze  
Wind Chill: 66°   Ceiling: 200
Heat Index: 66°   Visibility: 1.8mi
Dew Point: 66°   Wind: 18mph
Humidity: 100%   Direction: 330°NNW
Pressure: NA   Gusts: NA
Location:  17.83°S, 53.28°W
Report Text: SBCG 260800Z 33016KT 3000 BR BKN002 FEW045TCU BKN100 19/19 Q1007
Loading
Personal Weather Stations






























Interactive Weather Map New forecast layout! Learn more

10-Day Weather Forecast

Advertisements
Track Severe Weather on mobile